Kezdőlap
METAR-TAF:

METAR-TAF

Repülőterek :

Neuquén, Argentína

földrajzi szélesség: 38-57S, földrajzi hosszúság: 068-08W, magasság: 270 m

Jelenlegi meteorológiai megfigyelések

A jelentés 1 órával és 4 perccel ezelõtt készült, 10:00 UTC
Nyugat-északnyugati szél 5 kt
Hőmérséklet 18°C
Páratartalom 39%
Légköri nyomás 1016 hPa
Látótávolság 10 km, vagy több
felhőtlen 1500 m magasságban, és nincs gomolyfelhõ

METAR: SAZN 061000Z 29005KT CAVOK 18/04 Q1016

Idő: 08:04 (11:04 UTC)

Előrejelzés

A jelentés 6 órával és 4 perccel ezelõtt készült, 05:00 UTC
Az előrejelzés 06-én 06 óra UTC és 07-én 06 óra UTC között érvényes
Különbözõ irányokból fújó szél 3 kt
Látótávolság 10 km, vagy több
felhőtlen 1500 m magasságban, és nincs gomolyfelhõ

TAF: SAZN 060500Z 0606/0706 25010KT CAVOK TX28/0621Z TN17/0609Z BEMCG 0611/0613 VRB03KT

Meteorológiai megfigyelések és előrejelzések több, mint 4000 repülőtéren (METAR és TAF jelentéseket).

A térképen piros és sárga pontok jelzik az elérhető meteorológiai állomásokat.

Mozgassa az egeret a pont fölött, hogy megjelenjen az állomás neve.

Azután kattintson az időjárási megfigyelések és előrejelzések megtekintéséhez.

A térkép megváltoztatása: kattintson a fekete keresztel jelölt zöld gombra ráközelítéshez, a vonallal jelölt zöld gombra távolításhoz, vagy a zöld nyilakra a szomszédos térképek eléréséhez.


METAR-TAF: